sensor_id;sensor_type;location;lat;lon;timestamp;P1;durP1;ratioP1;P2;durP2;ratioP2
29688;SDS011;16600;47.444;8.334;2023-04-24T00:04:47;1.73;;;0.38;;
29688;SDS011;16600;47.444;8.334;2023-04-24T00:07:14;0.75;;;0.52;;
29688;SDS011;16600;47.444;8.334;2023-04-24T00:09:42;1.25;;;0.70;;
29688;SDS011;16600;47.444;8.334;2023-04-24T00:12:08;0.60;;;0.50;;
29688;SDS011;16600;47.444;8.334;2023-04-24T00:14:34;0.60;;;0.40;;
29688;SDS011;16600;47.444;8.334;2023-04-24T00:19:26;0.77;;;0.40;;
29688;SDS011;16600;47.444;8.334;2023-04-24T00:24:19;0.93;;;0.50;;
29688;SDS011;16600;47.444;8.334;2023-04-24T00:29:10;0.60;;;0.47;;
29688;SDS011;16600;47.444;8.334;2023-04-24T00:34:01;0.50;;;0.30;;
29688;SDS011;16600;47.444;8.334;2023-04-24T00:36:27;0.57;;;0.35;;
29688;SDS011;16600;47.444;8.334;2023-04-24T00:41:18;0.30;;;0.20;;
29688;SDS011;16600;47.444;8.334;2023-04-24T00:46:10;0.30;;;0.30;;
29688;SDS011;16600;47.444;8.334;2023-04-24T00:48:37;0.30;;;0.30;;
29688;SDS011;16600;47.444;8.334;2023-04-24T00:51:04;4.10;;;0.20;;
29688;SDS011;16600;47.444;8.334;2023-04-24T00:55:55;0.30;;;0.30;;
29688;SDS011;16600;47.444;8.334;2023-04-24T00:58:21;0.20;;;0.20;;
29688;SDS011;16600;47.444;8.334;2023-04-24T01:03:12;0.50;;;0.30;;
29688;SDS011;16600;47.444;8.334;2023-04-24T01:05:39;0.45;;;0.30;;
29688;SDS011;16600;47.444;8.334;2023-04-24T01:08:05;0.20;;;0.20;;
29688;SDS011;16600;47.444;8.334;2023-04-24T01:10:32;0.98;;;0.50;;
29688;SDS011;16600;47.444;8.334;2023-04-24T01:12:59;0.85;;;0.30;;
29688;SDS011;16600;47.444;8.334;2023-04-24T01:15:26;0.35;;;0.25;;
29688;SDS011;16600;47.444;8.334;2023-04-24T01:17:52;1.55;;;0.28;;
29688;SDS011;16600;47.444;8.334;2023-04-24T01:20:19;0.70;;;0.35;;
29688;SDS011;16600;47.444;8.334;2023-04-24T01:22:46;0.40;;;0.20;;
29688;SDS011;16600;47.444;8.334;2023-04-24T01:25:14;0.45;;;0.17;;
29688;SDS011;16600;47.444;8.334;2023-04-24T01:27:43;0.32;;;0.17;;
29688;SDS011;16600;47.444;8.334;2023-04-24T01:30:11;0.20;;;0.20;;
29688;SDS011;16600;47.444;8.334;2023-04-24T01:32:37;0.15;;;0.15;;
29688;SDS011;16600;47.444;8.334;2023-04-24T01:35:03;0.15;;;0.10;;
29688;SDS011;16600;47.444;8.334;2023-04-24T01:37:30;0.10;;;0.10;;
29688;SDS011;16600;47.444;8.334;2023-04-24T01:39:57;0.30;;;0.30;;
29688;SDS011;16600;47.444;8.334;2023-04-24T01:42:25;1.20;;;0.30;;
29688;SDS011;16600;47.444;8.334;2023-04-24T01:44:51;0.10;;;0.10;;
29688;SDS011;16600;47.444;8.334;2023-04-24T01:47:17;0.22;;;0.20;;
29688;SDS011;16600;47.444;8.334;2023-04-24T01:49:49;0.20;;;0.20;;
29688;SDS011;16600;47.444;8.334;2023-04-24T01:52:16;0.50;;;0.32;;
29688;SDS011;16600;47.444;8.334;2023-04-24T01:54:44;0.30;;;0.30;;
29688;SDS011;16600;47.444;8.334;2023-04-24T01:57:10;0.57;;;0.30;;
29688;SDS011;16600;47.444;8.334;2023-04-24T01:59:36;0.20;;;0.20;;
29688;SDS011;16600;47.444;8.334;2023-04-24T02:02:03;0.20;;;0.20;;
29688;SDS011;16600;47.444;8.334;2023-04-24T02:04:29;0.20;;;0.20;;
29688;SDS011;16600;47.444;8.334;2023-04-24T02:06:56;0.20;;;0.17;;
29688;SDS011;16600;47.444;8.334;2023-04-24T02:09:23;1.35;;;0.50;;
29688;SDS011;16600;47.444;8.334;2023-04-24T02:11:50;0.43;;;0.20;;
29688;SDS011;16600;47.444;8.334;2023-04-24T02:14:17;0.20;;;0.20;;
29688;SDS011;16600;47.444;8.334;2023-04-24T02:16:43;0.47;;;0.20;;
29688;SDS011;16600;47.444;8.334;2023-04-24T02:19:09;1.08;;;0.17;;
29688;SDS011;16600;47.444;8.334;2023-04-24T02:21:35;0.50;;;0.40;;
29688;SDS011;16600;47.444;8.334;2023-04-24T02:24:01;4.97;;;0.38;;
29688;SDS011;16600;47.444;8.334;2023-04-24T02:26:28;0.88;;;0.30;;
29688;SDS011;16600;47.444;8.334;2023-04-24T02:28:54;0.05;;;0.05;;
29688;SDS011;16600;47.444;8.334;2023-04-24T02:31:20;0.93;;;0.20;;
29688;SDS011;16600;47.444;8.334;2023-04-24T02:33:49;0.70;;;0.30;;
29688;SDS011;16600;47.444;8.334;2023-04-24T02:38:41;0.43;;;0.22;;
29688;SDS011;16600;47.444;8.334;2023-04-24T02:41:07;4.05;;;0.50;;
29688;SDS011;16600;47.444;8.334;2023-04-24T02:43:36;0.32;;;0.20;;
29688;SDS011;16600;47.444;8.334;2023-04-24T02:46:02;0.80;;;0.20;;
29688;SDS011;16600;47.444;8.334;2023-04-24T02:48:28;0.28;;;0.22;;
29688;SDS011;16600;47.444;8.334;2023-04-24T02:50:54;0.60;;;0.10;;
29688;SDS011;16600;47.444;8.334;2023-04-24T02:53:20;0.50;;;0.20;;
29688;SDS011;16600;47.444;8.334;2023-04-24T02:55:49;0.30;;;0.22;;
29688;SDS011;16600;47.444;8.334;2023-04-24T02:58:19;0.32;;;0.22;;
29688;SDS011;16600;47.444;8.334;2023-04-24T03:00:45;0.40;;;0.28;;
29688;SDS011;16600;47.444;8.334;2023-04-24T03:03:12;0.25;;;0.20;;
29688;SDS011;16600;47.444;8.334;2023-04-24T03:05:41;0.40;;;0.20;;
29688;SDS011;16600;47.444;8.334;2023-04-24T03:08:07;0.65;;;0.20;;
29688;SDS011;16600;47.444;8.334;2023-04-24T03:10:33;0.70;;;0.20;;
29688;SDS011;16600;47.444;8.334;2023-04-24T03:13:00;0.55;;;0.40;;
29688;SDS011;16600;47.444;8.334;2023-04-24T03:15:27;0.32;;;0.30;;
29688;SDS011;16600;47.444;8.334;2023-04-24T03:17:53;0.30;;;0.30;;
29688;SDS011;16600;47.444;8.334;2023-04-24T03:20:23;1.00;;;0.30;;
29688;SDS011;16600;47.444;8.334;2023-04-24T03:22:50;0.43;;;0.20;;
29688;SDS011;16600;47.444;8.334;2023-04-24T03:25:16;0.65;;;0.13;;
29688;SDS011;16600;47.444;8.334;2023-04-24T03:27:42;0.22;;;0.20;;
29688;SDS011;16600;47.444;8.334;2023-04-24T03:30:20;0.40;;;0.20;;
29688;SDS011;16600;47.444;8.334;2023-04-24T03:32:54;0.10;;;0.10;;
29688;SDS011;16600;47.444;8.334;2023-04-24T03:35:25;0.20;;;0.20;;
29688;SDS011;16600;47.444;8.334;2023-04-24T03:37:52;0.75;;;0.30;;
29688;SDS011;16600;47.444;8.334;2023-04-24T03:40:36;0.25;;;0.10;;
29688;SDS011;16600;47.444;8.334;2023-04-24T03:43:09;0.32;;;0.20;;
29688;SDS011;16600;47.444;8.334;2023-04-24T03:45:36;0.10;;;0.10;;
29688;SDS011;16600;47.444;8.334;2023-04-24T03:48:02;0.52;;;0.20;;
29688;SDS011;16600;47.444;8.334;2023-04-24T03:50:28;0.40;;;0.40;;
29688;SDS011;16600;47.444;8.334;2023-04-24T03:52:55;2.20;;;0.30;;
29688;SDS011;16600;47.444;8.334;2023-04-24T03:55:36;0.52;;;0.25;;
29688;SDS011;16600;47.444;8.334;2023-04-24T03:58:02;0.20;;;0.20;;
29688;SDS011;16600;47.444;8.334;2023-04-24T04:03:04;0.33;;;0.30;;
29688;SDS011;16600;47.444;8.334;2023-04-24T04:05:30;0.85;;;0.30;;
29688;SDS011;16600;47.444;8.334;2023-04-24T04:07:56;0.35;;;0.25;;
29688;SDS011;16600;47.444;8.334;2023-04-24T04:10:23;0.80;;;0.50;;
29688;SDS011;16600;47.444;8.334;2023-04-24T04:12:49;0.55;;;0.30;;
29688;SDS011;16600;47.444;8.334;2023-04-24T04:15:15;0.20;;;0.20;;
29688;SDS011;16600;47.444;8.334;2023-04-24T04:17:41;3.40;;;0.40;;
29688;SDS011;16600;47.444;8.334;2023-04-24T04:20:07;0.45;;;0.20;;
29688;SDS011;16600;47.444;8.334;2023-04-24T04:22:36;0.20;;;0.20;;
29688;SDS011;16600;47.444;8.334;2023-04-24T04:25:04;0.22;;;0.22;;
29688;SDS011;16600;47.444;8.334;2023-04-24T04:27:31;0.15;;;0.15;;
29688;SDS011;16600;47.444;8.334;2023-04-24T04:30:06;3.83;;;0.60;;
29688;SDS011;16600;47.444;8.334;2023-04-24T04:32:41;1.10;;;0.60;;
29688;SDS011;16600;47.444;8.334;2023-04-24T04:35:07;1.48;;;0.90;;
29688;SDS011;16600;47.444;8.334;2023-04-24T04:37:35;2.75;;;0.82;;
29688;SDS011;16600;47.444;8.334;2023-04-24T04:40:09;3.58;;;0.70;;
29688;SDS011;16600;47.444;8.334;2023-04-24T04:42:44;0.93;;;0.88;;
29688;SDS011;16600;47.444;8.334;2023-04-24T04:45:12;0.85;;;0.85;;
29688;SDS011;16600;47.444;8.334;2023-04-24T04:47:54;2.03;;;0.70;;
29688;SDS011;16600;47.444;8.334;2023-04-24T04:50:21;0.70;;;0.70;;
29688;SDS011;16600;47.444;8.334;2023-04-24T04:52:51;2.97;;;0.90;;
29688;SDS011;16600;47.444;8.334;2023-04-24T04:55:27;0.98;;;0.80;;
29688;SDS011;16600;47.444;8.334;2023-04-24T04:58:05;1.15;;;1.05;;
29688;SDS011;16600;47.444;8.334;2023-04-24T05:00:32;1.35;;;1.25;;
29688;SDS011;16600;47.444;8.334;2023-04-24T05:03:05;0.82;;;0.82;;
29688;SDS011;16600;47.444;8.334;2023-04-24T05:05:35;1.00;;;1.00;;
29688;SDS011;16600;47.444;8.334;2023-04-24T05:08:01;3.83;;;1.10;;
29688;SDS011;16600;47.444;8.334;2023-04-24T05:10:27;1.67;;;1.52;;
29688;SDS011;16600;47.444;8.334;2023-04-24T05:12:55;2.78;;;1.23;;
29688;SDS011;16600;47.444;8.334;2023-04-24T05:15:21;1.35;;;0.73;;
29688;SDS011;16600;47.444;8.334;2023-04-24T05:17:47;0.98;;;0.80;;
29688;SDS011;16600;47.444;8.334;2023-04-24T05:20:13;0.88;;;0.88;;
29688;SDS011;16600;47.444;8.334;2023-04-24T05:22:40;1.02;;;0.93;;
29688;SDS011;16600;47.444;8.334;2023-04-24T05:25:06;1.15;;;0.85;;
29688;SDS011;16600;47.444;8.334;2023-04-24T05:27:36;1.23;;;0.90;;
29688;SDS011;16600;47.444;8.334;2023-04-24T05:30:08;2.20;;;1.13;;
29688;SDS011;16600;47.444;8.334;2023-04-24T05:32:35;1.42;;;1.30;;
29688;SDS011;16600;47.444;8.334;2023-04-24T05:35:01;1.48;;;1.38;;
29688;SDS011;16600;47.444;8.334;2023-04-24T05:37:27;2.03;;;1.25;;
29688;SDS011;16600;47.444;8.334;2023-04-24T05:39:54;4.70;;;1.95;;
29688;SDS011;16600;47.444;8.334;2023-04-24T05:42:20;3.67;;;1.50;;
29688;SDS011;16600;47.444;8.334;2023-04-24T05:44:49;1.80;;;1.35;;
29688;SDS011;16600;47.444;8.334;2023-04-24T05:47:15;2.25;;;1.58;;
29688;SDS011;16600;47.444;8.334;2023-04-24T05:49:44;1.60;;;1.20;;
29688;SDS011;16600;47.444;8.334;2023-04-24T05:52:10;1.52;;;1.27;;
29688;SDS011;16600;47.444;8.334;2023-04-24T05:54:38;1.83;;;1.13;;
29688;SDS011;16600;47.444;8.334;2023-04-24T05:57:08;4.10;;;1.02;;
29688;SDS011;16600;47.444;8.334;2023-04-24T05:59:47;1.70;;;1.02;;
29688;SDS011;16600;47.444;8.334;2023-04-24T06:02:15;1.42;;;1.10;;
29688;SDS011;16600;47.444;8.334;2023-04-24T06:04:41;0.93;;;0.90;;
29688;SDS011;16600;47.444;8.334;2023-04-24T06:07:07;1.77;;;1.05;;
29688;SDS011;16600;47.444;8.334;2023-04-24T06:09:34;5.68;;;1.20;;
29688;SDS011;16600;47.444;8.334;2023-04-24T06:12:00;2.47;;;1.30;;
29688;SDS011;16600;47.444;8.334;2023-04-24T06:14:34;0.98;;;0.90;;
29688;SDS011;16600;47.444;8.334;2023-04-24T06:17:15;1.20;;;0.70;;
29688;SDS011;16600;47.444;8.334;2023-04-24T06:19:41;0.70;;;0.70;;
29688;SDS011;16600;47.444;8.334;2023-04-24T06:22:08;1.52;;;0.70;;
29688;SDS011;16600;47.444;8.334;2023-04-24T06:24:34;0.63;;;0.63;;
29688;SDS011;16600;47.444;8.334;2023-04-24T06:27:00;1.20;;;0.90;;
29688;SDS011;16600;47.444;8.334;2023-04-24T06:29:28;1.00;;;0.77;;
29688;SDS011;16600;47.444;8.334;2023-04-24T06:31:54;1.98;;;0.77;;
29688;SDS011;16600;47.444;8.334;2023-04-24T06:34:20;0.73;;;0.63;;
29688;SDS011;16600;47.444;8.334;2023-04-24T06:36:46;2.83;;;0.98;;
29688;SDS011;16600;47.444;8.334;2023-04-24T06:39:12;2.90;;;0.85;;
29688;SDS011;16600;47.444;8.334;2023-04-24T06:41:39;2.22;;;1.10;;
29688;SDS011;16600;47.444;8.334;2023-04-24T06:44:09;2.35;;;1.08;;
29688;SDS011;16600;47.444;8.334;2023-04-24T06:46:35;1.42;;;1.13;;
29688;SDS011;16600;47.444;8.334;2023-04-24T06:49:05;1.35;;;1.17;;
29688;SDS011;16600;47.444;8.334;2023-04-24T06:51:31;2.42;;;1.75;;
29688;SDS011;16600;47.444;8.334;2023-04-24T06:53:58;2.40;;;1.38;;
29688;SDS011;16600;47.444;8.334;2023-04-24T06:56:25;1.30;;;1.10;;
29688;SDS011;16600;47.444;8.334;2023-04-24T06:58:51;2.22;;;0.80;;
29688;SDS011;16600;47.444;8.334;2023-04-24T07:01:18;1.05;;;0.82;;
29688;SDS011;16600;47.444;8.334;2023-04-24T07:03:44;1.75;;;0.90;;
29688;SDS011;16600;47.444;8.334;2023-04-24T07:06:13;1.20;;;0.90;;
29688;SDS011;16600;47.444;8.334;2023-04-24T07:08:44;2.00;;;1.15;;
29688;SDS011;16600;47.444;8.334;2023-04-24T07:11:10;1.73;;;1.08;;
29688;SDS011;16600;47.444;8.334;2023-04-24T07:13:36;0.80;;;0.80;;
29688;SDS011;16600;47.444;8.334;2023-04-24T07:16:07;3.08;;;0.80;;
29688;SDS011;16600;47.444;8.334;2023-04-24T07:18:34;1.40;;;1.08;;
29688;SDS011;16600;47.444;8.334;2023-04-24T07:21:00;1.48;;;1.02;;
29688;SDS011;16600;47.444;8.334;2023-04-24T07:23:27;2.70;;;1.10;;
29688;SDS011;16600;47.444;8.334;2023-04-24T07:25:53;1.30;;;0.93;;
29688;SDS011;16600;47.444;8.334;2023-04-24T07:28:19;3.53;;;1.08;;
29688;SDS011;16600;47.444;8.334;2023-04-24T07:30:45;2.05;;;1.40;;
29688;SDS011;16600;47.444;8.334;2023-04-24T07:33:11;1.38;;;0.90;;
29688;SDS011;16600;47.444;8.334;2023-04-24T07:35:38;1.25;;;1.00;;
29688;SDS011;16600;47.444;8.334;2023-04-24T07:38:04;4.88;;;1.50;;
29688;SDS011;16600;47.444;8.334;2023-04-24T07:40:31;1.35;;;1.25;;
29688;SDS011;16600;47.444;8.334;2023-04-24T07:42:57;6.97;;;1.50;;
29688;SDS011;16600;47.444;8.334;2023-04-24T07:45:23;2.47;;;1.30;;
29688;SDS011;16600;47.444;8.334;2023-04-24T07:47:51;2.00;;;1.52;;
29688;SDS011;16600;47.444;8.334;2023-04-24T07:50:17;3.20;;;1.50;;
29688;SDS011;16600;47.444;8.334;2023-04-24T07:52:44;2.50;;;1.50;;
29688;SDS011;16600;47.444;8.334;2023-04-24T07:55:13;3.42;;;1.75;;
29688;SDS011;16600;47.444;8.334;2023-04-24T07:57:39;5.63;;;1.80;;
29688;SDS011;16600;47.444;8.334;2023-04-24T08:00:05;2.45;;;1.70;;
29688;SDS011;16600;47.444;8.334;2023-04-24T08:02:36;5.03;;;1.92;;
29688;SDS011;16600;47.444;8.334;2023-04-24T08:05:03;2.78;;;2.10;;
29688;SDS011;16600;47.444;8.334;2023-04-24T08:07:29;2.10;;;1.70;;
29688;SDS011;16600;47.444;8.334;2023-04-24T08:09:55;6.88;;;1.90;;
29688;SDS011;16600;47.444;8.334;2023-04-24T08:12:21;2.47;;;1.50;;
29688;SDS011;16600;47.444;8.334;2023-04-24T08:14:47;2.88;;;1.85;;
29688;SDS011;16600;47.444;8.334;2023-04-24T08:19:40;8.77;;;2.03;;
29688;SDS011;16600;47.444;8.334;2023-04-24T08:22:10;1.83;;;1.55;;
29688;SDS011;16600;47.444;8.334;2023-04-24T08:24:36;3.72;;;1.92;;
29688;SDS011;16600;47.444;8.334;2023-04-24T08:27:02;3.40;;;1.83;;
29688;SDS011;16600;47.444;8.334;2023-04-24T08:29:28;7.28;;;1.77;;
29688;SDS011;16600;47.444;8.334;2023-04-24T08:31:54;3.97;;;2.03;;
29688;SDS011;16600;47.444;8.334;2023-04-24T08:34:21;5.28;;;2.00;;
29688;SDS011;16600;47.444;8.334;2023-04-24T08:36:47;2.33;;;1.75;;
29688;SDS011;16600;47.444;8.334;2023-04-24T08:39:16;3.50;;;1.92;;
29688;SDS011;16600;47.444;8.334;2023-04-24T08:41:43;3.17;;;1.70;;
29688;SDS011;16600;47.444;8.334;2023-04-24T08:44:10;7.65;;;1.80;;
29688;SDS011;16600;47.444;8.334;2023-04-24T08:46:37;3.83;;;1.63;;
29688;SDS011;16600;47.444;8.334;2023-04-24T08:49:03;2.80;;;1.52;;
29688;SDS011;16600;47.444;8.334;2023-04-24T08:51:30;3.70;;;1.77;;
29688;SDS011;16600;47.444;8.334;2023-04-24T08:53:57;3.03;;;1.77;;
29688;SDS011;16600;47.444;8.334;2023-04-24T08:56:23;2.88;;;2.08;;
29688;SDS011;16600;47.444;8.334;2023-04-24T08:58:53;2.42;;;1.70;;
29688;SDS011;16600;47.444;8.334;2023-04-24T09:01:20;3.67;;;1.95;;
29688;SDS011;16600;47.444;8.334;2023-04-24T09:03:48;3.05;;;1.90;;
29688;SDS011;16600;47.444;8.334;2023-04-24T09:06:16;3.88;;;1.90;;
29688;SDS011;16600;47.444;8.334;2023-04-24T09:08:43;2.90;;;1.65;;
29688;SDS011;16600;47.444;8.334;2023-04-24T09:11:11;3.50;;;1.98;;
29688;SDS011;16600;47.444;8.334;2023-04-24T09:13:37;2.22;;;1.65;;
29688;SDS011;16600;47.444;8.334;2023-04-24T09:16:03;3.72;;;1.90;;
29688;SDS011;16600;47.444;8.334;2023-04-24T09:18:29;3.10;;;2.00;;
29688;SDS011;16600;47.444;8.334;2023-04-24T09:21:00;5.93;;;3.50;;
29688;SDS011;16600;47.444;8.334;2023-04-24T09:23:27;3.70;;;1.80;;
29688;SDS011;16600;47.444;8.334;2023-04-24T09:25:54;2.92;;;2.13;;
29688;SDS011;16600;47.444;8.334;2023-04-24T09:28:29;2.88;;;1.52;;
29688;SDS011;16600;47.444;8.334;2023-04-24T09:31:05;3.15;;;1.65;;
29688;SDS011;16600;47.444;8.334;2023-04-24T09:33:31;2.90;;;1.67;;
29688;SDS011;16600;47.444;8.334;2023-04-24T09:35:57;5.03;;;2.05;;
29688;SDS011;16600;47.444;8.334;2023-04-24T09:38:31;5.63;;;1.95;;
29688;SDS011;16600;47.444;8.334;2023-04-24T09:41:06;6.70;;;1.98;;
29688;SDS011;16600;47.444;8.334;2023-04-24T09:43:36;3.78;;;1.83;;
29688;SDS011;16600;47.444;8.334;2023-04-24T09:46:06;3.85;;;1.92;;
29688;SDS011;16600;47.444;8.334;2023-04-24T09:48:33;3.47;;;2.00;;
29688;SDS011;16600;47.444;8.334;2023-04-24T09:51:00;3.65;;;1.63;;
29688;SDS011;16600;47.444;8.334;2023-04-24T09:53:27;3.92;;;2.30;;
29688;SDS011;16600;47.444;8.334;2023-04-24T09:56:01;4.50;;;2.08;;
29688;SDS011;16600;47.444;8.334;2023-04-24T09:58:28;5.10;;;1.88;;
29688;SDS011;16600;47.444;8.334;2023-04-24T10:03:03;2.73;;;1.83;;
29688;SDS011;16600;47.444;8.334;2023-04-24T10:05:33;6.47;;;2.08;;
29688;SDS011;16600;47.444;8.334;2023-04-24T10:08:01;7.70;;;2.05;;
29688;SDS011;16600;47.444;8.334;2023-04-24T10:10:34;3.50;;;1.80;;
29688;SDS011;16600;47.444;8.334;2023-04-24T10:13:00;3.72;;;1.50;;
29688;SDS011;16600;47.444;8.334;2023-04-24T10:15:35;2.65;;;1.73;;
29688;SDS011;16600;47.444;8.334;2023-04-24T10:18:02;9.32;;;2.53;;
29688;SDS011;16600;47.444;8.334;2023-04-24T10:20:30;5.82;;;1.77;;
29688;SDS011;16600;47.444;8.334;2023-04-24T10:22:57;3.38;;;2.03;;
29688;SDS011;16600;47.444;8.334;2023-04-24T10:25:24;6.72;;;2.55;;
29688;SDS011;16600;47.444;8.334;2023-04-24T10:27:50;6.20;;;1.77;;
29688;SDS011;16600;47.444;8.334;2023-04-24T10:30:17;2.83;;;1.70;;
29688;SDS011;16600;47.444;8.334;2023-04-24T10:32:50;5.07;;;2.42;;
29688;SDS011;16600;47.444;8.334;2023-04-24T10:35:21;4.50;;;1.95;;
29688;SDS011;16600;47.444;8.334;2023-04-24T10:37:59;1.77;;;1.50;;
29688;SDS011;16600;47.444;8.334;2023-04-24T10:40:30;2.65;;;1.80;;
29688;SDS011;16600;47.444;8.334;2023-04-24T10:42:59;2.65;;;1.55;;
29688;SDS011;16600;47.444;8.334;2023-04-24T10:45:25;3.85;;;1.50;;
29688;SDS011;16600;47.444;8.334;2023-04-24T10:47:52;4.55;;;1.80;;
29688;SDS011;16600;47.444;8.334;2023-04-24T10:50:18;2.35;;;1.70;;
29688;SDS011;16600;47.444;8.334;2023-04-24T10:52:47;4.18;;;1.80;;
29688;SDS011;16600;47.444;8.334;2023-04-24T10:55:16;8.10;;;2.20;;
29688;SDS011;16600;47.444;8.334;2023-04-24T10:58:02;2.63;;;1.80;;
29688;SDS011;16600;47.444;8.334;2023-04-24T11:00:29;5.40;;;2.33;;
29688;SDS011;16600;47.444;8.334;2023-04-24T11:02:56;2.88;;;1.90;;
29688;SDS011;16600;47.444;8.334;2023-04-24T11:08:11;4.57;;;2.03;;
29688;SDS011;16600;47.444;8.334;2023-04-24T11:10:43;2.78;;;1.80;;
29688;SDS011;16600;47.444;8.334;2023-04-24T11:13:09;3.05;;;1.50;;
29688;SDS011;16600;47.444;8.334;2023-04-24T11:15:35;3.78;;;2.20;;
29688;SDS011;16600;47.444;8.334;2023-04-24T11:18:04;6.65;;;2.30;;
29688;SDS011;16600;47.444;8.334;2023-04-24T11:20:34;2.60;;;1.88;;
29688;SDS011;16600;47.444;8.334;2023-04-24T11:23:03;2.88;;;2.22;;
29688;SDS011;16600;47.444;8.334;2023-04-24T11:25:35;2.67;;;1.80;;
29688;SDS011;16600;47.444;8.334;2023-04-24T11:28:05;4.00;;;1.90;;
29688;SDS011;16600;47.444;8.334;2023-04-24T11:30:32;2.25;;;1.63;;
29688;SDS011;16600;47.444;8.334;2023-04-24T11:33:02;2.75;;;1.80;;
29688;SDS011;16600;47.444;8.334;2023-04-24T11:35:29;2.97;;;1.73;;
29688;SDS011;16600;47.444;8.334;2023-04-24T11:38:00;3.88;;;1.92;;
29688;SDS011;16600;47.444;8.334;2023-04-24T11:40:28;6.22;;;2.40;;
29688;SDS011;16600;47.444;8.334;2023-04-24T11:42:54;3.92;;;1.77;;
29688;SDS011;16600;47.444;8.334;2023-04-24T11:45:22;5.20;;;2.20;;
29688;SDS011;16600;47.444;8.334;2023-04-24T11:47:48;6.47;;;2.00;;
29688;SDS011;16600;47.444;8.334;2023-04-24T11:50:16;4.38;;;1.90;;
29688;SDS011;16600;47.444;8.334;2023-04-24T11:52:43;4.38;;;1.75;;
29688;SDS011;16600;47.444;8.334;2023-04-24T11:57:45;6.22;;;1.90;;
29688;SDS011;16600;47.444;8.334;2023-04-24T12:00:18;3.03;;;1.60;;
29688;SDS011;16600;47.444;8.334;2023-04-24T12:02:46;11.73;;;2.08;;
29688;SDS011;16600;47.444;8.334;2023-04-24T12:05:19;2.38;;;1.60;;
29688;SDS011;16600;47.444;8.334;2023-04-24T12:07:46;3.13;;;1.63;;
29688;SDS011;16600;47.444;8.334;2023-04-24T12:10:12;2.03;;;1.30;;
29688;SDS011;16600;47.444;8.334;2023-04-24T12:12:38;2.40;;;1.52;;
29688;SDS011;16600;47.444;8.334;2023-04-24T12:15:08;2.78;;;1.33;;
29688;SDS011;16600;47.444;8.334;2023-04-24T12:17:40;2.45;;;1.23;;
29688;SDS011;16600;47.444;8.334;2023-04-24T12:20:07;4.00;;;1.70;;
29688;SDS011;16600;47.444;8.334;2023-04-24T12:22:46;3.08;;;1.40;;
29688;SDS011;16600;47.444;8.334;2023-04-24T12:25:12;2.95;;;1.52;;
29688;SDS011;16600;47.444;8.334;2023-04-24T12:27:41;4.10;;;1.45;;
29688;SDS011;16600;47.444;8.334;2023-04-24T12:30:10;2.17;;;1.40;;
29688;SDS011;16600;47.444;8.334;2023-04-24T12:32:47;1.30;;;1.20;;
29688;SDS011;16600;47.444;8.334;2023-04-24T12:35:18;2.65;;;1.30;;
29688;SDS011;16600;47.444;8.334;2023-04-24T12:37:46;1.40;;;1.13;;
29688;SDS011;16600;47.444;8.334;2023-04-24T12:40:15;1.52;;;1.00;;
29688;SDS011;16600;47.444;8.334;2023-04-24T12:42:42;1.58;;;1.30;;
29688;SDS011;16600;47.444;8.334;2023-04-24T12:45:08;1.80;;;1.30;;
29688;SDS011;16600;47.444;8.334;2023-04-24T12:47:35;2.22;;;1.23;;
29688;SDS011;16600;47.444;8.334;2023-04-24T12:50:02;2.53;;;1.27;;
29688;SDS011;16600;47.444;8.334;2023-04-24T12:52:28;1.80;;;1.17;;
29688;SDS011;16600;47.444;8.334;2023-04-24T12:54:56;1.65;;;1.40;;
29688;SDS011;16600;47.444;8.334;2023-04-24T12:57:23;3.47;;;1.63;;
29688;SDS011;16600;47.444;8.334;2023-04-24T12:59:49;1.90;;;1.55;;
29688;SDS011;16600;47.444;8.334;2023-04-24T13:02:18;2.63;;;1.77;;
29688;SDS011;16600;47.444;8.334;2023-04-24T13:04:51;4.85;;;1.80;;
29688;SDS011;16600;47.444;8.334;2023-04-24T13:07:18;3.83;;;1.83;;
29688;SDS011;16600;47.444;8.334;2023-04-24T13:09:44;2.83;;;2.03;;
29688;SDS011;16600;47.444;8.334;2023-04-24T13:12:13;6.68;;;1.95;;
29688;SDS011;16600;47.444;8.334;2023-04-24T13:14:40;3.83;;;2.40;;
29688;SDS011;16600;47.444;8.334;2023-04-24T13:17:06;4.63;;;2.35;;
29688;SDS011;16600;47.444;8.334;2023-04-24T13:19:40;3.15;;;2.25;;
29688;SDS011;16600;47.444;8.334;2023-04-24T13:22:06;5.00;;;2.13;;
29688;SDS011;16600;47.444;8.334;2023-04-24T13:24:33;3.63;;;2.13;;
29688;SDS011;16600;47.444;8.334;2023-04-24T13:26:59;4.43;;;2.25;;
29688;SDS011;16600;47.444;8.334;2023-04-24T13:29:26;4.10;;;2.28;;
29688;SDS011;16600;47.444;8.334;2023-04-24T13:31:53;4.30;;;2.15;;
29688;SDS011;16600;47.444;8.334;2023-04-24T13:34:25;3.88;;;2.25;;
29688;SDS011;16600;47.444;8.334;2023-04-24T13:36:55;2.58;;;1.90;;
29688;SDS011;16600;47.444;8.334;2023-04-24T13:39:22;1.58;;;1.48;;
29688;SDS011;16600;47.444;8.334;2023-04-24T13:41:51;4.03;;;2.28;;
29688;SDS011;16600;47.444;8.334;2023-04-24T13:44:18;4.85;;;2.05;;
29688;SDS011;16600;47.444;8.334;2023-04-24T13:46:44;2.58;;;1.88;;
29688;SDS011;16600;47.444;8.334;2023-04-24T13:49:11;5.50;;;2.60;;
29688;SDS011;16600;47.444;8.334;2023-04-24T13:51:37;4.75;;;2.45;;
29688;SDS011;16600;47.444;8.334;2023-04-24T13:54:03;5.22;;;2.28;;
29688;SDS011;16600;47.444;8.334;2023-04-24T13:56:30;5.30;;;2.40;;
29688;SDS011;16600;47.444;8.334;2023-04-24T13:58:56;5.15;;;2.63;;
29688;SDS011;16600;47.444;8.334;2023-04-24T14:01:22;5.47;;;2.47;;
29688;SDS011;16600;47.444;8.334;2023-04-24T14:03:51;5.22;;;2.30;;
29688;SDS011;16600;47.444;8.334;2023-04-24T14:06:18;3.33;;;1.80;;
29688;SDS011;16600;47.444;8.334;2023-04-24T14:08:44;1.65;;;1.50;;
29688;SDS011;16600;47.444;8.334;2023-04-24T14:11:13;3.58;;;1.80;;
29688;SDS011;16600;47.444;8.334;2023-04-24T14:13:40;2.00;;;1.60;;
29688;SDS011;16600;47.444;8.334;2023-04-24T14:16:07;2.08;;;1.55;;
29688;SDS011;16600;47.444;8.334;2023-04-24T14:18:33;1.48;;;1.33;;
29688;SDS011;16600;47.444;8.334;2023-04-24T14:20:59;4.32;;;2.00;;
29688;SDS011;16600;47.444;8.334;2023-04-24T14:23:27;4.03;;;1.88;;
29688;SDS011;16600;47.444;8.334;2023-04-24T14:25:53;2.42;;;1.88;;
29688;SDS011;16600;47.444;8.334;2023-04-24T14:28:19;2.05;;;1.52;;
29688;SDS011;16600;47.444;8.334;2023-04-24T14:30:46;1.95;;;1.65;;
29688;SDS011;16600;47.444;8.334;2023-04-24T14:33:12;3.78;;;2.00;;
29688;SDS011;16600;47.444;8.334;2023-04-24T14:35:39;1.88;;;1.58;;
29688;SDS011;16600;47.444;8.334;2023-04-24T14:38:05;2.15;;;1.52;;
29688;SDS011;16600;47.444;8.334;2023-04-24T14:40:31;6.80;;;1.67;;
29688;SDS011;16600;47.444;8.334;2023-04-24T14:42:58;3.17;;;1.50;;
29688;SDS011;16600;47.444;8.334;2023-04-24T14:45:25;6.20;;;1.83;;
29688;SDS011;16600;47.444;8.334;2023-04-24T14:47:51;2.08;;;1.30;;
29688;SDS011;16600;47.444;8.334;2023-04-24T14:50:17;6.88;;;1.73;;
29688;SDS011;16600;47.444;8.334;2023-04-24T14:52:43;5.63;;;1.42;;
29688;SDS011;16600;47.444;8.334;2023-04-24T14:55:09;1.88;;;1.40;;
29688;SDS011;16600;47.444;8.334;2023-04-24T14:57:36;3.72;;;1.52;;
29688;SDS011;16600;47.444;8.334;2023-04-24T15:00:03;3.17;;;1.52;;
29688;SDS011;16600;47.444;8.334;2023-04-24T15:02:32;3.33;;;1.60;;
29688;SDS011;16600;47.444;8.334;2023-04-24T15:04:58;1.60;;;1.50;;
29688;SDS011;16600;47.444;8.334;2023-04-24T15:07:25;7.07;;;1.60;;
29688;SDS011;16600;47.444;8.334;2023-04-24T15:09:51;2.38;;;1.35;;
29688;SDS011;16600;47.444;8.334;2023-04-24T15:12:17;3.25;;;1.05;;
29688;SDS011;16600;47.444;8.334;2023-04-24T15:14:43;2.33;;;1.45;;
29688;SDS011;16600;47.444;8.334;2023-04-24T15:17:09;1.70;;;1.50;;
29688;SDS011;16600;47.444;8.334;2023-04-24T15:19:35;2.25;;;1.70;;
29688;SDS011;16600;47.444;8.334;2023-04-24T15:22:01;4.93;;;1.55;;
29688;SDS011;16600;47.444;8.334;2023-04-24T15:24:28;2.25;;;1.80;;
29688;SDS011;16600;47.444;8.334;2023-04-24T15:26:54;8.57;;;1.98;;
29688;SDS011;16600;47.444;8.334;2023-04-24T15:29:20;3.72;;;1.85;;